createdAt,value
2019-04-21T00:01:52.867Z,2.00
2019-04-21T00:05:25.983Z,1.80
2019-04-21T00:08:39.209Z,1.63
2019-04-21T00:11:40.840Z,1.90
2019-04-21T00:14:43.771Z,1.67
2019-04-21T00:17:42.736Z,1.77
2019-04-21T00:20:52.714Z,2.20
2019-04-21T00:24:23.902Z,1.63
2019-04-21T00:27:33.733Z,1.70
2019-04-21T00:30:50.557Z,1.40
2019-04-21T00:33:41.607Z,1.77
2019-04-21T00:37:00.084Z,1.53
2019-04-21T00:40:17.829Z,2.03
2019-04-21T00:43:26.566Z,1.50
2019-04-21T00:46:32.404Z,1.90
2019-04-21T00:49:47.864Z,1.70
2019-04-21T00:53:05.807Z,2.13
2019-04-21T00:56:33.929Z,2.03
2019-04-21T00:59:30.151Z,1.90
2019-04-21T01:02:43.127Z,1.90
2019-04-21T01:05:47.209Z,1.77
2019-04-21T01:08:55.729Z,2.00
2019-04-21T01:12:03.820Z,1.83
2019-04-21T01:15:20.907Z,1.83
2019-04-21T01:18:27.144Z,2.00
2019-04-21T01:21:14.585Z,1.47
2019-04-21T01:24:30.747Z,1.83
2019-04-21T01:27:52.157Z,1.77
2019-04-21T01:31:03.450Z,1.97
2019-04-21T01:34:08.718Z,2.10
2019-04-21T01:37:21.167Z,1.97
2019-04-21T01:40:41.115Z,1.33
2019-04-21T01:43:39.496Z,2.10
2019-04-21T01:46:45.756Z,2.00
2019-04-21T01:49:52.770Z,2.20
2019-04-21T01:53:19.752Z,2.00
2019-04-21T01:56:44.525Z,1.90
2019-04-21T01:59:47.359Z,1.93
2019-04-21T02:03:40.671Z,2.33
2019-04-21T02:06:33.169Z,2.33
2019-04-21T02:09:41.983Z,2.57
2019-04-21T02:12:51.277Z,2.67
2019-04-21T02:16:06.893Z,2.53
2019-04-21T02:19:08.247Z,2.47
2019-04-21T02:22:19.226Z,1.90
2019-04-21T02:25:31.810Z,2.30
2019-04-21T02:32:05.705Z,2.53
2019-04-21T02:35:14.156Z,3.07
2019-04-21T02:38:20.555Z,2.60
2019-04-21T02:41:30.797Z,2.30
2019-04-21T02:44:43.017Z,2.43
2019-04-21T02:48:04.559Z,2.50
2019-04-21T02:51:17.397Z,2.07
2019-04-21T03:03:52.842Z,2.83
2019-04-21T03:07:14.896Z,3.40
2019-04-21T03:10:20.683Z,2.67
2019-04-21T03:13:29.099Z,2.97
2019-04-21T03:20:00.679Z,2.80
2019-04-21T03:22:59.984Z,2.30
2019-04-21T03:26:14.340Z,2.53
2019-04-21T03:29:24.507Z,2.30
2019-04-21T03:38:51.049Z,2.70
2019-04-21T03:42:18.876Z,3.17
2019-04-21T03:45:03.526Z,2.60
2019-04-21T03:48:21.638Z,2.87
2019-04-21T03:51:37.653Z,2.50
2019-04-21T03:54:37.377Z,3.23
2019-04-21T03:58:00.342Z,3.10
2019-04-21T04:01:16.720Z,2.27
2019-04-21T04:08:23.091Z,3.30
2019-04-21T04:14:24.961Z,2.77
2019-04-21T04:17:25.501Z,3.43
2019-04-21T04:23:55.842Z,2.80
2019-04-21T04:30:14.211Z,2.90
2019-04-21T04:33:30.426Z,3.40
2019-04-21T04:43:31.088Z,2.70
2019-04-21T04:46:44.273Z,2.37
2019-04-21T04:49:55.074Z,2.80
2019-04-21T04:56:05.860Z,2.80
2019-04-21T05:02:31.728Z,3.30
2019-04-21T05:05:49.123Z,3.00
2019-04-21T05:08:52.946Z,2.43
2019-04-21T05:15:06.428Z,2.83
2019-04-21T05:18:05.288Z,2.97
2019-04-21T05:21:23.260Z,3.60
2019-04-21T05:24:16.604Z,5.27
2019-04-21T05:27:29.393Z,4.53
2019-04-21T05:31:19.807Z,3.93
2019-04-21T05:34:30.503Z,2.93
2019-04-21T05:37:56.657Z,2.97
2019-04-21T05:40:55.256Z,2.50
2019-04-21T05:44:19.341Z,2.90
2019-04-21T05:47:35.323Z,3.53
2019-04-21T05:50:32.562Z,3.80
2019-04-21T05:53:55.934Z,3.00
2019-04-21T05:56:59.770Z,2.47
2019-04-21T06:00:12.321Z,2.93
2019-04-21T06:03:23.126Z,2.77
2019-04-21T06:06:33.625Z,3.00
2019-04-21T06:09:48.775Z,2.87
2019-04-21T06:12:51.090Z,2.67
2019-04-21T06:15:58.000Z,2.60
2019-04-21T06:19:03.356Z,2.67
2019-04-21T06:22:14.843Z,2.70
2019-04-21T06:28:42.659Z,2.07
2019-04-21T06:32:16.496Z,1.90
2019-04-21T06:35:12.720Z,2.43
2019-04-21T06:38:16.592Z,2.30
2019-04-21T06:41:30.327Z,2.50
2019-04-21T06:44:33.057Z,2.60
2019-04-21T06:50:52.830Z,2.80
2019-04-21T06:57:00.928Z,2.77
2019-04-21T07:00:11.813Z,2.43
2019-04-21T07:03:29.416Z,1.97
2019-04-21T07:06:43.857Z,2.07
2019-04-21T07:09:47.959Z,1.90
2019-04-21T07:12:50.978Z,2.50
2019-04-21T07:16:04.682Z,2.20
2019-04-21T07:19:22.119Z,2.10
2019-04-21T07:22:27.363Z,2.30
2019-04-21T07:28:51.037Z,1.90
2019-04-21T07:31:59.202Z,2.07
2019-04-21T07:35:03.946Z,2.43
2019-04-21T07:38:12.003Z,2.30
2019-04-21T07:41:18.660Z,2.37
2019-04-21T07:44:30.235Z,2.60
2019-04-21T07:47:50.725Z,2.27
2019-04-21T07:51:09.152Z,2.00
2019-04-21T07:54:17.261Z,2.20
2019-04-21T07:57:27.627Z,2.40
2019-04-21T08:00:45.056Z,1.83
2019-04-21T08:03:45.490Z,1.93
2019-04-21T08:06:53.568Z,2.20
2019-04-21T08:10:07.847Z,2.60
2019-04-21T08:13:22.287Z,2.30
2019-04-21T08:16:24.187Z,2.27
2019-04-21T08:19:32.455Z,2.27
2019-04-21T08:22:49.409Z,1.90
2019-04-21T08:26:02.934Z,2.40
2019-04-21T08:29:12.780Z,2.30
2019-04-21T08:35:50.543Z,2.43
2019-04-21T08:38:30.213Z,2.20
2019-04-21T08:41:41.132Z,2.30
2019-04-21T08:44:53.708Z,2.00
2019-04-21T08:48:00.520Z,2.20
2019-04-21T08:51:26.087Z,2.13
2019-04-21T08:54:22.041Z,2.17
2019-04-21T08:57:44.187Z,1.77
2019-04-21T09:01:01.119Z,1.93
2019-04-21T09:04:15.591Z,2.37
2019-04-21T09:07:25.625Z,2.07
2019-04-21T09:13:42.590Z,1.80
2019-04-21T09:16:47.494Z,1.67
2019-04-21T09:20:07.608Z,1.23
2019-04-21T09:23:07.761Z,1.63
2019-04-21T09:26:18.717Z,1.87
2019-04-21T09:29:25.311Z,1.50
2019-04-21T09:32:23.904Z,1.80
2019-04-21T09:35:31.426Z,1.63
2019-04-21T09:38:42.438Z,1.87
2019-04-21T09:41:53.706Z,1.77
2019-04-21T09:45:03.202Z,1.90
2019-04-21T09:48:14.067Z,1.53
2019-04-21T09:51:20.157Z,1.90
2019-04-21T09:54:31.993Z,1.93
2019-04-21T09:57:46.133Z,2.10
2019-04-21T10:01:00.039Z,1.53
2019-04-21T10:03:59.849Z,1.57
2019-04-21T10:08:19.107Z,1.97
2019-04-21T10:11:28.723Z,1.80
2019-04-21T10:14:36.946Z,1.50
2019-04-21T10:17:49.570Z,1.97
2019-04-21T10:20:58.958Z,2.07
2019-04-21T10:24:06.451Z,1.60
2019-04-21T10:27:14.837Z,1.53
2019-04-21T10:30:22.613Z,1.80
2019-04-21T10:33:30.882Z,1.73
2019-04-21T10:36:38.499Z,1.70
2019-04-21T10:39:47.412Z,1.77
2019-04-21T10:42:56.366Z,2.20
2019-04-21T10:46:04.482Z,2.20
2019-04-21T10:49:12.756Z,2.00
2019-04-21T10:52:27.889Z,1.87
2019-04-21T10:55:54.292Z,1.60
2019-04-21T10:58:49.907Z,2.07
2019-04-21T11:01:58.944Z,1.73
2019-04-21T11:05:06.981Z,1.57
2019-04-21T11:08:24.734Z,1.60
2019-04-21T11:11:25.920Z,1.50
2019-04-21T11:14:35.579Z,1.60
2019-04-21T11:17:45.104Z,1.50
2019-04-21T11:20:53.149Z,1.97
2019-04-21T11:24:01.889Z,1.87
2019-04-21T11:27:10.815Z,1.77
2019-04-21T11:30:19.909Z,1.37
2019-04-21T11:33:28.858Z,1.77
2019-04-21T11:36:37.486Z,1.50
2019-04-21T11:39:51.944Z,1.77
2019-04-21T11:42:57.706Z,1.63
2019-04-21T11:46:06.689Z,1.80
2019-04-21T11:49:15.836Z,1.43
2019-04-21T11:52:24.955Z,1.60
2019-04-21T11:55:36.791Z,1.50
2019-04-21T11:58:43.618Z,1.50
2019-04-21T12:01:51.806Z,1.27
2019-04-21T12:04:59.275Z,1.43
2019-04-21T12:08:18.951Z,1.87
2019-04-21T12:11:17.669Z,1.60
2019-04-21T12:14:25.966Z,1.70
2019-04-21T12:17:34.155Z,1.80
2019-04-21T12:20:43.051Z,1.90
2019-04-21T12:23:50.679Z,1.50
2019-04-21T12:26:59.793Z,1.77
2019-04-21T12:30:09.469Z,1.77
2019-04-21T12:33:40.501Z,1.50
2019-04-21T12:37:16.970Z,1.70
2019-04-21T12:40:26.406Z,1.50
2019-04-21T12:43:34.892Z,1.40
2019-04-21T12:46:43.608Z,1.50
2019-04-21T12:49:52.027Z,1.90
2019-04-21T12:53:00.118Z,1.67
2019-04-21T12:56:07.709Z,1.07
2019-04-21T12:59:15.446Z,1.50
2019-04-21T13:02:23.820Z,1.10
2019-04-21T13:05:32.012Z,1.33
2019-04-21T13:08:49.874Z,1.67
2019-04-21T13:11:50.991Z,1.47
2019-04-21T13:15:03.912Z,1.30
2019-04-21T13:18:12.398Z,1.27
2019-04-21T13:21:20.230Z,1.30
2019-04-21T13:24:27.493Z,1.27
2019-04-21T13:27:34.977Z,0.90
2019-04-21T13:30:44.332Z,0.90
2019-04-21T13:33:52.317Z,1.07
2019-04-21T13:37:01.421Z,1.03
2019-04-21T13:40:49.836Z,1.40
2019-04-21T13:43:43.602Z,1.00
2019-04-21T13:46:52.346Z,1.27
2019-04-21T13:50:02.911Z,1.20
2019-04-21T13:53:12.308Z,1.27
2019-04-21T13:56:20.625Z,1.07
2019-04-21T13:59:28.865Z,1.23
2019-04-21T14:02:36.622Z,1.10
2019-04-21T14:05:44.614Z,1.23
2019-04-21T14:08:52.613Z,1.47
2019-04-21T14:12:01.360Z,1.10
2019-04-21T14:15:10.780Z,1.40
2019-04-21T14:18:20.658Z,1.37
2019-04-21T14:21:29.410Z,1.27
2019-04-21T14:24:38.597Z,1.27
2019-04-21T14:27:49.033Z,1.73
2019-04-21T14:30:56.518Z,1.40
2019-04-21T14:34:06.015Z,1.20
2019-04-21T14:37:14.800Z,1.40
2019-04-21T14:40:27.347Z,1.20
2019-04-21T14:43:34.276Z,1.47
2019-04-21T14:46:50.972Z,1.60
2019-04-21T14:50:22.321Z,1.30
2019-04-21T14:53:38.070Z,1.20
2019-04-21T14:56:47.308Z,1.40
2019-04-21T14:59:55.674Z,1.60
2019-04-21T15:03:03.731Z,1.47
2019-04-21T15:06:11.675Z,1.10
2019-04-21T15:09:20.910Z,1.50
2019-04-21T15:12:29.926Z,1.50
2019-04-21T15:15:38.067Z,1.33
2019-04-21T15:18:47.025Z,2.23
2019-04-21T15:21:56.581Z,2.00
2019-04-21T15:25:05.874Z,2.00
2019-04-21T15:28:14.293Z,1.97
2019-04-21T15:31:28.730Z,1.63
2019-04-21T15:34:31.946Z,1.70
2019-04-21T15:37:39.983Z,1.27
2019-04-21T15:40:53.878Z,1.33
2019-04-21T15:43:59.531Z,1.57
2019-04-21T15:47:08.237Z,1.83
2019-04-21T15:50:18.159Z,1.57
2019-04-21T15:53:27.643Z,1.80
2019-04-21T15:56:49.128Z,1.73
2019-04-21T16:00:08.739Z,1.53
2019-04-21T16:03:16.573Z,1.83
2019-04-21T16:06:25.681Z,1.50
2019-04-21T16:09:35.830Z,1.70
2019-04-21T16:12:43.776Z,1.57
2019-04-21T16:15:52.510Z,1.57
2019-04-21T16:19:00.548Z,1.87
2019-04-21T16:22:08.737Z,1.93
2019-04-21T16:25:17.055Z,1.87
2019-04-21T16:28:24.929Z,1.93
2019-04-21T16:31:32.594Z,2.17
2019-04-21T16:34:47.308Z,1.70
2019-04-21T16:37:49.800Z,1.70
2019-04-21T16:41:01.706Z,1.70
2019-04-21T16:44:07.561Z,1.87
2019-04-21T16:47:15.201Z,1.67
2019-04-21T16:50:25.426Z,1.73
2019-04-21T16:53:37.755Z,1.97
2019-04-21T16:56:53.999Z,1.60
2019-04-21T17:00:06.512Z,3.17
2019-04-21T17:03:14.697Z,2.97
2019-04-21T17:06:23.014Z,1.63
2019-04-21T17:09:32.652Z,1.80
2019-04-21T17:12:41.744Z,1.93
2019-04-21T17:16:06.361Z,1.97
2019-04-21T17:19:12.801Z,2.43
2019-04-21T17:22:11.719Z,1.20
2019-04-21T17:25:21.592Z,1.50
2019-04-21T17:28:31.755Z,1.30
2019-04-21T17:31:39.513Z,1.70
2019-04-21T17:34:47.957Z,1.50
2019-04-21T17:37:56.353Z,2.20
2019-04-21T17:41:19.480Z,6.67
2019-04-21T17:44:15.005Z,2.77
2019-04-21T17:47:38.476Z,1.60
2019-04-21T17:50:51.459Z,2.40
2019-04-21T17:54:13.756Z,3.30
2019-04-21T17:57:36.467Z,7.97
2019-04-21T18:01:06.563Z,4.90
2019-04-21T18:04:03.634Z,1.63
2019-04-21T18:07:17.317Z,2.53
2019-04-21T18:10:30.630Z,2.03
2019-04-21T18:13:26.087Z,1.60
2019-04-21T18:16:39.072Z,1.70
2019-04-21T18:19:43.254Z,1.40
2019-04-21T18:23:00.909Z,1.63
2019-04-21T18:26:23.211Z,1.40
2019-04-21T18:29:18.710Z,1.67
2019-04-21T18:32:30.797Z,3.20
2019-04-21T18:36:06.683Z,2.10
2019-04-21T18:39:34.291Z,1.90
2019-04-21T18:42:53.195Z,1.60
2019-04-21T18:46:22.329Z,1.73
2019-04-21T18:49:13.146Z,1.83
2019-04-21T18:52:45.233Z,1.77
2019-04-21T18:55:45.125Z,1.93
2019-04-21T18:58:48.507Z,1.70
2019-04-21T19:02:02.015Z,1.97
2019-04-21T19:05:15.147Z,1.87
2019-04-21T19:08:30.983Z,1.50
2019-04-21T19:11:43.334Z,1.67
2019-04-21T19:14:52.183Z,1.77
2019-04-21T19:21:11.179Z,2.60
2019-04-21T19:27:31.040Z,1.97
2019-04-21T19:30:52.610Z,2.30
2019-04-21T19:33:48.169Z,3.13
2019-04-21T19:36:52.054Z,6.40
2019-04-21T19:40:07.777Z,4.57
2019-04-21T19:43:29.422Z,2.93
2019-04-21T19:46:31.252Z,2.00
2019-04-21T19:49:51.347Z,1.87
2019-04-21T19:52:46.660Z,1.70
2019-04-21T19:55:45.765Z,2.10
2019-04-21T19:58:54.923Z,2.10
2019-04-21T20:02:24.708Z,2.20
2019-04-21T20:05:43.067Z,2.40
2019-04-21T20:09:01.827Z,3.67
2019-04-21T20:12:08.209Z,4.93
2019-04-21T20:15:26.056Z,4.27
2019-04-21T20:18:21.255Z,4.63
2019-04-21T20:21:21.013Z,4.60
2019-04-21T20:24:32.463Z,3.07
2019-04-21T20:27:49.504Z,2.67
2019-04-21T20:31:08.302Z,2.33
2019-04-21T20:34:17.721Z,2.10
2019-04-21T20:37:26.572Z,2.00
2019-04-21T20:40:28.535Z,2.60
2019-04-21T20:43:45.659Z,2.30
2019-04-21T20:46:51.017Z,2.83
2019-04-21T20:50:04.405Z,2.63
2019-04-21T20:53:12.335Z,2.83
2019-04-21T20:56:17.168Z,2.50
2019-04-21T20:59:28.662Z,2.73
2019-04-21T21:02:49.384Z,2.07
2019-04-21T21:05:48.017Z,2.00
2019-04-21T21:09:01.480Z,1.50
2019-04-21T21:12:22.357Z,1.60
2019-04-21T21:15:24.694Z,2.00
2019-04-21T21:19:01.192Z,2.10
2019-04-21T21:21:43.124Z,2.70
2019-04-21T21:24:50.795Z,2.20
2019-04-21T21:27:55.172Z,2.40
2019-04-21T21:31:13.336Z,3.20
2019-04-21T21:34:27.727Z,2.87
2019-04-21T21:37:49.519Z,2.63
2019-04-21T21:40:40.686Z,2.70
2019-04-21T21:43:34.430Z,3.23
2019-04-21T21:46:55.347Z,2.40
2019-04-21T21:50:06.102Z,2.70
2019-04-21T21:53:09.715Z,2.43
2019-04-21T21:56:10.961Z,1.97
2019-04-21T21:59:22.903Z,2.37
2019-04-21T22:02:36.076Z,4.07
2019-04-21T22:05:45.537Z,3.37
2019-04-21T22:08:48.328Z,3.20
2019-04-21T22:12:00.468Z,2.90
2019-04-21T22:15:13.960Z,2.77
2019-04-21T22:18:34.990Z,2.60
2019-04-21T22:21:49.418Z,2.73
2019-04-21T22:24:49.297Z,2.83
2019-04-21T22:27:48.782Z,2.70
2019-04-21T22:30:56.969Z,2.73
2019-04-21T22:34:07.571Z,2.47
2019-04-21T22:37:30.849Z,2.93
2019-04-21T22:40:42.971Z,2.23
2019-04-21T22:43:39.946Z,3.07
2019-04-21T22:46:54.845Z,2.60
2019-04-21T22:49:52.849Z,2.10
2019-04-21T22:53:05.839Z,2.37
2019-04-21T22:56:14.962Z,2.10
2019-04-21T22:59:22.227Z,2.37
2019-04-21T23:02:31.649Z,2.20
2019-04-21T23:05:41.125Z,2.50
2019-04-21T23:08:48.090Z,2.53
2019-04-21T23:11:58.441Z,2.23
2019-04-21T23:15:13.226Z,2.10
2019-04-21T23:18:30.546Z,1.90
2019-04-21T23:21:45.795Z,1.60
2019-04-21T23:24:59.341Z,1.47
2019-04-21T23:28:03.460Z,1.60
2019-04-21T23:31:12.461Z,2.50
2019-04-21T23:34:04.506Z,2.20
2019-04-21T23:37:17.762Z,2.30
2019-04-21T23:40:24.145Z,1.83
2019-04-21T23:43:35.433Z,2.30
2019-04-21T23:46:44.456Z,1.77
2019-04-21T23:50:00.097Z,1.97
2019-04-21T23:53:03.577Z,2.03
2019-04-21T23:56:13.427Z,2.33
2019-04-21T23:59:20.701Z,1.90
